Accueil
METAR-TAF:

METAR-TAF

Aéroports :

Aéroport de Milan-Linate

Milan, Italie

latitude: 45-26N, longitude: 009-17E, altitude: 107 m

Observation

Le bulletin a été fait il y a 31 minutes, à 10:50 UTC
Vent 5 kt de sud-ouest, variant entre sud et ouest/nord-ouest
Température 22°C
Humidité 65%
Pression 998 hPa
Visibilité 10 km ou plus
Quelques nuages à une hauteur de 3000 ft

METAR: LIML 051050Z 22005KT 180V290 9999 FEW030 22/15 Q0998 NOSIG

Heure: 13:21 (11:21 UTC)

Prévision

Le bulletin a été fait il y a 6 heures et 21 minutes, à 05:00 UTC
Prévision valable du 05 à 06 UTC au 06 à 06 UTC
Vent 5 kt de nord-ouest
Visibilité: 6000 m
Nuages fragmentés à une hauteur de 3000 ft

TAF: LIML 050500Z 0506/0606 32005KT 6000 BKN030

Observations et prévisions météorologiques de plus de 4000 aéroports (messages METAR et TAF).

Les stations disponibles sont représentées par des disques jaunes et rouges sur la carte.

Passer la souris dessus pour voir le nom de la station.

Cliquer dessus pour voir les observations et prévisions météorologiques.

Pour changer de carte: cliquez sur les boutons verts avec une croix noire pour zoomer, sur le bouton vert avec un tiret pour effectuer un zoom arrière, ou sur les flèches vertes pour les cartes adjacentes.


METAR-TAF: